Terminal Aerodrome Forecast
Issued by NWS

Home | Current Version | Previous Version | Text Only | Print | Product List | Glossary On
Versions: 1 2 3 4 5 6 7 8 9 10 11 12 13 14 15 16 17 18 19 20 21 22 23 24 25
000
FTUS43 KMQT 231300 AAA
TAFSAW
TAF AMD
KSAW 231308Z 2313/2412 07004KT 3SM BR VCSH OVC004
      TEMPO 2313/2314 1/4SM -SHRA OVC002
     FM231400 09004KT 5SM BR VCSH SCT004 OVC008
     FM231600 11006KT P6SM OVC015
     FM232000 09008KT P6SM OVC035
     FM240400 12006KT 5SM BR OVC020
     FM240900 14005KT 3SM BR OVC010
      AMD LTD TO CLD VIS AND WIND 2402/2410=

USA.gov is the U.S. government's official web portal to all federal, state and local government web resources and services.